Time;durP1;ratioP1;P1;durP2;ratioP2;P2;SDS_P1;SDS_P2;PMS_P1;PMS_P2;Temp;Humidity;BMP_temperature;BMP_pressure;BME280_temperature;BME280_humidity;BME280_pressure;Samples;Min_cycle;Max_cycle;Signal;HPM_P1;HPM_P2
2021/01/10 00:00:50;;;;;;;27.10;19.73;;;-0.90;99.90;;;;;;5091781;28;20614;-42
2021/01/10 00:03:17;;;;;;;26.40;19.30;;;-0.90;99.90;;;;;;5091601;28;20299;-42
2021/01/10 00:05:44;;;;;;;24.80;19.70;;;-0.80;99.90;;;;;;5091721;28;20223;-42
2021/01/10 00:08:11;;;;;;;30.03;20.63;;;-0.70;99.90;;;;;;5091557;28;20708;-42
2021/01/10 00:10:38;;;;;;;27.13;19.30;;;-0.60;99.90;;;;;;5091426;28;20289;-42
2021/01/10 00:13:05;;;;;;;25.97;17.57;;;-0.60;99.90;;;;;;5091785;28;20211;-42
2021/01/10 00:15:33;;;;;;;24.23;18.23;;;-0.50;99.90;;;;;;5091775;28;20205;-44
2021/01/10 00:18:05;;;;;;;23.13;17.27;;;-0.40;99.90;;;;;;5091350;28;20210;-40
2021/01/10 00:20:33;;;;;;;23.55;17.15;;;-0.30;99.90;;;;;;5091799;28;20263;-43
2021/01/10 00:23:02;;;;;;;22.77;16.43;;;-0.20;99.90;;;;;;5095309;28;20210;-42
2021/01/10 00:25:30;;;;;;;25.90;17.30;;;0.00;99.90;;;;;;5095001;28;20234;-40
2021/01/10 00:27:57;;;;;;;25.90;17.53;;;0.00;99.90;;;;;;5095091;28;20249;-39
2021/01/10 00:30:24;;;;;;;25.52;17.80;;;0.10;99.90;;;;;;5095058;28;20299;-41
2021/01/10 00:32:53;;;;;;;27.07;16.53;;;0.10;99.90;;;;;;5095062;28;20606;-40
2021/01/10 00:35:22;;;;;;;55.60;39.93;;;0.10;99.90;;;;;;5095032;28;20299;-41
2021/01/10 00:37:51;;;;;;;25.40;17.97;;;0.10;99.90;;;;;;5094746;28;20716;-41
2021/01/10 00:40:19;;;;;;;46.23;35.90;;;0.10;99.90;;;;;;5094931;28;20267;-41
2021/01/10 00:42:46;;;;;;;25.67;21.52;;;0.10;99.90;;;;;;5094802;28;20211;-41
2021/01/10 00:45:14;;;;;;;26.08;17.35;;;0.00;99.90;;;;;;5094511;28;20240;-41
2021/01/10 00:47:41;;;;;;;29.60;21.58;;;0.00;99.90;;;;;;5094939;28;20202;-41
2021/01/10 00:50:11;;;;;;;34.17;24.80;;;0.00;99.90;;;;;;5094570;28;20673;-42
2021/01/10 00:52:38;;;;;;;28.37;21.77;;;0.00;99.90;;;;;;5094436;28;20210;-40
2021/01/10 00:55:07;;;;;;;25.90;19.10;;;0.00;99.90;;;;;;5094631;28;20306;-40
2021/01/10 00:57:34;;;;;;;48.23;33.87;;;-0.10;99.90;;;;;;5094279;28;20737;-41
2021/01/10 01:00:07;;;;;;;23.63;18.33;;;-0.10;99.90;;;;;;5094708;28;20217;-40
2021/01/10 01:02:34;;;;;;;24.33;17.10;;;-0.20;99.90;;;;;;5094678;28;20207;-43
2021/01/10 01:05:01;;;;;;;21.30;17.10;;;-0.20;99.90;;;;;;5094568;28;20206;-41
2021/01/10 01:07:29;;;;;;;53.73;31.53;;;-0.10;99.90;;;;;;5094221;28;20368;-41
2021/01/10 01:09:56;;;;;;;69.40;38.80;;;0.00;99.90;;;;;;5094257;28;20261;-41
2021/01/10 01:12:26;;;;;;;313.00;164.83;;;0.00;99.90;;;;;;5094037;28;20330;-42
2021/01/10 01:14:54;;;;;;;28.93;22.00;;;0.00;99.90;;;;;;5094040;28;20294;-41
2021/01/10 01:17:21;;;;;;;27.02;19.52;;;0.00;99.90;;;;;;5094048;28;20718;-41
2021/01/10 01:19:48;;;;;;;25.60;18.17;;;0.00;99.90;;;;;;5094076;28;20218;-40
2021/01/10 01:22:15;;;;;;;37.57;29.53;;;0.00;99.90;;;;;;5093959;28;20207;-41
2021/01/10 01:24:43;;;;;;;24.43;17.97;;;0.10;99.90;;;;;;5093808;28;20632;-43
2021/01/10 01:27:10;;;;;;;23.33;18.57;;;0.10;99.90;;;;;;5094173;28;20269;-41
2021/01/10 01:29:38;;;;;;;20.23;17.58;;;0.10;99.90;;;;;;5094088;28;20215;-48
2021/01/10 01:32:05;;;;;;;41.15;34.58;;;0.10;99.90;;;;;;5093969;28;20297;-41
2021/01/10 01:34:32;;;;;;;27.23;23.70;;;0.10;99.90;;;;;;5093873;28;20578;-40
2021/01/10 01:37:00;;;;;;;25.43;21.20;;;0.10;99.90;;;;;;5093624;28;20209;-41
2021/01/10 01:39:26;;;;;;;22.50;17.67;;;0.00;99.90;;;;;;5093712;28;20499;-40
2021/01/10 01:41:54;;;;;;;20.52;16.50;;;0.00;99.90;;;;;;5093585;28;20210;-41
2021/01/10 01:44:21;;;;;;;21.87;16.13;;;0.00;99.90;;;;;;5093704;28;20778;-41
2021/01/10 01:46:48;;;;;;;23.25;16.33;;;0.00;99.90;;;;;;5093616;28;20645;-40
2021/01/10 01:49:16;;;;;;;24.40;16.67;;;-0.10;99.90;;;;;;5093445;28;20202;-40
2021/01/10 01:51:43;;;;;;;21.17;16.92;;;-0.10;99.90;;;;;;5093970;28;20206;-43
2021/01/10 01:54:10;;;;;;;23.58;17.13;;;0.00;99.90;;;;;;5093399;28;20285;-42
2021/01/10 01:56:38;;;;;;;23.37;16.93;;;0.00;99.90;;;;;;5093273;28;20301;-44
2021/01/10 01:59:08;;;;;;;25.47;18.23;;;-0.10;99.90;;;;;;5093395;28;20283;-44
2021/01/10 02:01:36;;;;;;;24.88;17.35;;;-0.20;99.90;;;;;;5093534;28;20285;-40
2021/01/10 02:04:12;;;;;;;21.67;16.55;;;-0.40;99.90;;;;;;5093143;28;20210;-42
2021/01/10 02:06:48;;;;;;;25.17;17.52;;;-0.50;99.90;;;;;;5093430;28;20287;-40
2021/01/10 02:09:17;;;;;;;24.05;18.40;;;-0.60;99.90;;;;;;5093808;28;20202;-43
2021/01/10 02:11:50;;;;;;;23.77;17.57;;;-0.70;99.90;;;;;;5092961;28;20262;-41
2021/01/10 02:14:20;;;;;;;24.77;18.10;;;-0.70;99.90;;;;;;5093250;28;20633;-40
2021/01/10 02:16:48;;;;;;;22.25;16.42;;;-0.70;99.90;;;;;;5092965;28;20245;-39
2021/01/10 02:19:22;;;;;;;24.40;16.67;;;-0.70;99.90;;;;;;5092940;28;20206;-43
2021/01/10 02:21:52;;;;;;;21.17;15.73;;;-0.70;99.90;;;;;;5092980;28;20700;-41
2021/01/10 02:24:21;;;;;;;21.30;16.27;;;-0.80;99.90;;;;;;5092995;28;20233;-41
2021/01/10 02:26:49;;;;;;;22.83;16.50;;;-0.80;99.90;;;;;;5092794;28;20694;-41
2021/01/10 02:29:18;;;;;;;25.40;18.83;;;-0.90;99.90;;;;;;5092840;28;20252;-40
2021/01/10 02:31:48;;;;;;;25.33;18.20;;;-0.90;99.90;;;;;;5092637;28;20210;-41
2021/01/10 02:34:17;;;;;;;26.83;18.73;;;-1.00;99.90;;;;;;5092742;28;20210;-41
2021/01/10 02:37:05;;;;;;;30.92;21.25;;;-1.10;99.90;;;;;;5092858;28;20199;-40
2021/01/10 02:39:46;;;;;;;24.70;18.37;;;-1.20;99.90;;;;;;5092649;28;20297;-41
2021/01/10 02:42:21;;;;;;;24.77;17.63;;;-1.30;99.90;;;;;;5092859;28;20206;-40
2021/01/10 02:44:55;;;;;;;27.53;18.70;;;-1.40;99.90;;;;;;5092187;28;20299;-40
2021/01/10 02:47:23;;;;;;;24.00;17.00;;;-1.40;99.90;;;;;;5092497;28;20680;-42
2021/01/10 02:49:50;;;;;;;26.83;19.40;;;-1.40;99.90;;;;;;5092557;28;20241;-41
2021/01/10 02:52:17;;;;;;;26.17;17.37;;;-1.40;99.90;;;;;;5092419;28;20213;-41
2021/01/10 02:54:45;;;;;;;25.53;18.27;;;-1.40;99.90;;;;;;5092568;28;20301;-43
2021/01/10 02:57:18;;;;;;;20.90;16.30;;;-1.50;99.90;;;;;;5092289;28;20669;-42
2021/01/10 02:59:48;;;;;;;24.87;17.50;;;-1.50;99.90;;;;;;5092584;28;20238;-43
2021/01/10 03:02:18;;;;;;;24.43;17.30;;;-1.40;99.90;;;;;;5092237;28;20566;-40
2021/01/10 03:04:46;;;;;;;20.97;15.33;;;-1.50;99.90;;;;;;5092353;28;20207;-41
2021/01/10 03:07:14;;;;;;;20.67;16.60;;;-1.50;99.90;;;;;;5092164;28;20227;-41
2021/01/10 03:09:41;;;;;;;22.67;15.43;;;-1.60;99.90;;;;;;5092590;28;20638;-41
2021/01/10 03:12:24;;;;;;;20.43;15.40;;;-1.60;99.90;;;;;;5092070;28;20274;-43
2021/01/10 03:14:52;;;;;;;23.13;16.60;;;-1.60;99.90;;;;;;5092018;28;20207;-41
2021/01/10 03:17:31;;;;;;;23.40;16.57;;;-1.70;99.90;;;;;;5092105;28;20260;-41
2021/01/10 03:19:59;;;;;;;24.13;17.13;;;-1.60;99.90;;;;;;5092078;28;20217;-40
2021/01/10 03:22:26;;;;;;;21.37;16.10;;;-1.70;99.90;;;;;;5092065;28;20238;-41
2021/01/10 03:24:53;;;;;;;21.70;16.07;;;-1.70;99.90;;;;;;5092158;28;20293;-41
2021/01/10 03:27:21;;;;;;;24.27;16.50;;;-1.80;99.90;;;;;;5092026;28;20229;-41
2021/01/10 03:29:48;;;;;;;20.03;16.03;;;-1.80;99.90;;;;;;5091894;28;20210;-41
2021/01/10 03:32:16;;;;;;;23.47;16.27;;;-1.90;99.90;;;;;;5092098;28;20211;-41
2021/01/10 03:34:43;;;;;;;26.07;17.93;;;-2.00;99.90;;;;;;5092091;28;20301;-40
2021/01/10 03:37:10;;;;;;;26.63;17.57;;;-2.00;99.90;;;;;;5092036;28;20294;-39
2021/01/10 03:39:38;;;;;;;20.97;16.53;;;-2.10;99.90;;;;;;5091915;28;20207;-40
2021/01/10 03:42:06;;;;;;;21.08;14.85;;;-2.10;99.90;;;;;;5091891;28;20222;-40
2021/01/10 03:44:34;;;;;;;24.73;16.73;;;-2.20;99.90;;;;;;5091983;28;20207;-41
2021/01/10 03:47:03;;;;;;;25.13;17.23;;;-2.20;99.90;;;;;;5091917;28;20644;-41
2021/01/10 03:49:30;;;;;;;23.07;16.53;;;-2.20;99.90;;;;;;5091971;28;20256;-41
2021/01/10 03:51:58;;;;;;;23.10;16.57;;;-2.20;99.90;;;;;;5091626;28;20302;-42
2021/01/10 03:54:24;;;;;;;24.23;16.87;;;-2.30;99.90;;;;;;5091713;28;20752;-40
2021/01/10 03:56:52;;;;;;;25.67;17.70;;;-2.30;99.90;;;;;;5093596;28;20268;-40
2021/01/10 03:59:19;;;;;;;22.80;16.27;;;-2.30;99.90;;;;;;5095585;28;20238;-41
2021/01/10 04:01:46;;;;;;;26.97;17.33;;;-2.30;99.90;;;;;;5079054;28;20268;-41
2021/01/10 04:04:14;;;;;;;22.27;16.33;;;-2.40;99.90;;;;;;5083470;28;20206;-41
2021/01/10 04:06:41;;;;;;;23.10;16.30;;;-2.40;99.90;;;;;;5095366;28;20322;-40
2021/01/10 04:09:08;;;;;;;23.33;16.65;;;-2.50;99.90;;;;;;5095297;28;20614;-40
2021/01/10 04:11:35;;;;;;;21.00;16.33;;;-2.50;99.90;;;;;;5095274;28;20297;-40
2021/01/10 04:14:03;;;;;;;22.23;15.80;;;-2.50;99.90;;;;;;5095293;28;20696;-40
2021/01/10 04:16:30;;;;;;;25.00;17.75;;;-2.50;99.90;;;;;;5095431;28;20289;-39
2021/01/10 04:18:58;;;;;;;19.48;16.00;;;-2.50;99.90;;;;;;5095377;28;20218;-41
2021/01/10 04:21:32;;;;;;;21.53;14.03;;;-2.50;99.90;;;;;;5095162;28;20551;-41
2021/01/10 04:23:59;;;;;;;22.67;17.47;;;-2.60;99.90;;;;;;5095070;28;20302;-42
2021/01/10 04:26:26;;;;;;;24.60;16.70;;;-2.50;99.90;;;;;;5095250;28;20258;-41
2021/01/10 04:28:53;;;;;;;21.40;15.53;;;-2.50;99.90;;;;;;5095205;28;20242;-42
2021/01/10 04:31:20;;;;;;;25.83;17.30;;;-2.50;99.90;;;;;;5095184;28;20206;-40
2021/01/10 04:33:47;;;;;;;24.58;17.58;;;-2.50;99.90;;;;;;5094851;28;20207;-40
2021/01/10 04:36:15;;;;;;;22.77;16.65;;;-2.50;99.90;;;;;;5094966;28;20233;-40
2021/01/10 04:38:42;;;;;;;21.27;15.87;;;-2.40;99.90;;;;;;5094878;28;20234;-40
2021/01/10 04:41:09;;;;;;;20.93;15.40;;;-2.40;99.90;;;;;;5095041;28;20211;-40
2021/01/10 04:43:37;;;;;;;22.10;16.07;;;-2.40;99.90;;;;;;5094762;28;20297;-41
2021/01/10 04:46:05;;;;;;;21.00;15.87;;;-2.40;99.90;;;;;;5094853;28;20203;-40
2021/01/10 04:48:32;;;;;;;21.97;15.57;;;-2.40;99.90;;;;;;5094780;28;20206;-45
2021/01/10 04:51:00;;;;;;;21.90;16.23;;;-2.40;99.90;;;;;;5094601;28;20240;-42
2021/01/10 04:53:31;;;;;;;21.25;16.23;;;-2.40;99.90;;;;;;5094828;28;20588;-40
2021/01/10 04:55:58;;;;;;;23.83;17.58;;;-2.40;99.90;;;;;;5094835;28;20577;-40
2021/01/10 04:58:28;;;;;;;21.77;16.00;;;-2.30;99.90;;;;;;5094743;28;20210;-40
2021/01/10 05:00:57;;;;;;;21.10;16.07;;;-2.30;99.90;;;;;;5094487;28;20206;-41
2021/01/10 05:03:25;;;;;;;22.13;15.43;;;-2.30;99.90;;;;;;5094266;28;20207;-40
2021/01/10 05:05:53;;;;;;;19.00;14.70;;;-2.20;99.90;;;;;;5094610;28;20263;-40
2021/01/10 05:08:20;;;;;;;22.65;17.17;;;-2.10;99.90;;;;;;5093813;28;20716;-40
2021/01/10 05:10:48;;;;;;;21.40;15.35;;;-2.10;99.90;;;;;;5094237;28;20303;-41
2021/01/10 05:13:16;;;;;;;18.60;14.10;;;-2.10;99.90;;;;;;5094185;28;20206;-40
2021/01/10 05:15:44;;;;;;;21.30;16.23;;;-2.00;99.90;;;;;;5094262;28;20213;-40
2021/01/10 05:18:11;;;;;;;23.15;16.40;;;-2.10;99.90;;;;;;5094018;28;20206;-39
2021/01/10 05:20:38;;;;;;;20.07;14.63;;;-2.10;99.90;;;;;;5094260;28;20294;-40
2021/01/10 05:23:05;;;;;;;21.50;15.37;;;-2.10;99.90;;;;;;5094109;28;20728;-40
2021/01/10 05:25:33;;;;;;;21.35;15.27;;;-2.20;99.90;;;;;;5094011;28;20211;-40
2021/01/10 05:28:04;;;;;;;18.87;15.07;;;-2.20;99.90;;;;;;5093832;28;20317;-40
2021/01/10 05:30:32;;;;;;;19.20;14.33;;;-2.10;99.90;;;;;;5093914;28;20294;-39
2021/01/10 05:33:02;;;;;;;19.40;14.67;;;-2.20;99.90;;;;;;5094772;28;20236;-41
2021/01/10 05:35:47;;;;;;;18.07;14.17;;;-2.20;99.90;;;;;;5093990;28;20261;-39
2021/01/10 05:38:25;;;;;;;21.57;16.23;;;-2.20;99.90;;;;;;5093864;28;20230;-39
2021/01/10 05:40:54;;;;;;;22.23;15.97;;;-2.20;99.90;;;;;;5093711;28;20256;-39
2021/01/10 05:43:23;;;;;;;20.73;15.53;;;-2.30;99.90;;;;;;5093732;28;20563;-38
2021/01/10 05:45:50;;;;;;;21.77;16.10;;;-2.30;99.90;;;;;;5093757;28;20211;-38
2021/01/10 05:48:18;;;;;;;21.80;14.25;;;-2.40;99.90;;;;;;5093597;28;20262;-38
2021/01/10 05:50:47;;;;;;;17.83;14.10;;;-2.40;99.90;;;;;;5093752;28;20271;-39
2021/01/10 05:53:19;;;;;;;18.40;13.60;;;-2.40;99.90;;;;;;5093616;28;20207;-39
2021/01/10 05:55:56;;;;;;;18.23;13.33;;;-2.40;99.90;;;;;;5093635;28;20650;-39
2021/01/10 05:58:27;;;;;;;17.10;13.70;;;-2.30;99.90;;;;;;5093579;28;20281;-39
2021/01/10 06:00:54;;;;;;;16.97;13.43;;;-2.30;99.90;;;;;;5093475;28;20238;-39
2021/01/10 06:03:23;;;;;;;18.30;14.13;;;-2.20;99.90;;;;;;5093213;28;20218;-39
2021/01/10 06:05:54;;;;;;;18.33;13.60;;;-2.10;99.90;;;;;;5093292;28;20218;-39
2021/01/10 06:08:32;;;;;;;19.67;15.80;;;-2.00;99.90;;;;;;5093283;28;20262;-39
2021/01/10 06:11:19;;;;;;;19.83;13.93;;;-1.90;99.90;;;;;;5093009;28;20300;-39
2021/01/10 06:13:52;;;;;;;18.93;13.10;;;-1.90;99.90;;;;;;5093023;28;20253;-41
2021/01/10 06:16:20;;;;;;;19.45;14.55;;;-1.80;99.90;;;;;;5093170;28;20217;-39
2021/01/10 06:18:52;;;;;;;19.10;14.90;;;-1.70;99.90;;;;;;5092198;28;20215;-40
2021/01/10 06:21:21;;;;;;;17.27;13.85;;;-1.60;99.90;;;;;;5093168;28;20203;-40
2021/01/10 06:23:52;;;;;;;17.50;13.63;;;-1.60;99.90;;;;;;5092981;28;20236;-40
2021/01/10 06:26:21;;;;;;;17.03;13.17;;;-1.50;99.90;;;;;;5092711;28;20210;-40
2021/01/10 06:28:55;;;;;;;17.53;13.63;;;-1.40;99.90;;;;;;5092578;28;20240;-40
2021/01/10 06:31:25;;;;;;;16.87;12.63;;;-1.40;99.90;;;;;;5093749;28;20302;-39
2021/01/10 06:33:57;;;;;;;16.77;13.40;;;-1.40;99.90;;;;;;5092547;28;20238;-42
2021/01/10 06:36:28;;;;;;;19.10;14.90;;;-1.30;99.90;;;;;;5093758;28;20293;-41
2021/01/10 06:39:08;;;;;;;21.33;15.10;;;-1.30;99.90;;;;;;5092572;28;20214;-41
2021/01/10 06:42:11;;;;;;;17.80;13.50;;;-1.20;99.90;;;;;;5092551;28;20419;-41
2021/01/10 06:44:42;;;;;;;18.43;13.70;;;-1.10;99.90;;;;;;5092680;28;20415;-40
2021/01/10 06:47:20;;;;;;;18.57;13.13;;;-1.10;99.90;;;;;;5092563;28;20329;-40
2021/01/10 06:49:48;;;;;;;17.07;12.93;;;-1.10;99.90;;;;;;5092466;28;20302;-40
2021/01/10 06:52:19;;;;;;;18.73;13.53;;;-1.20;99.90;;;;;;5092693;28;20214;-40
2021/01/10 06:54:48;;;;;;;19.33;13.23;;;-1.10;99.90;;;;;;5092573;28;20234;-40
2021/01/10 06:57:17;;;;;;;18.53;13.83;;;-1.20;99.90;;;;;;5092498;28;20610;-39
2021/01/10 07:00:09;;;;;;;16.70;14.02;;;-1.30;99.90;;;;;;5092334;28;20241;-41
2021/01/10 07:03:05;;;;;;;18.73;12.33;;;-1.30;99.90;;;;;;5092350;28;20625;-43
2021/01/10 07:06:10;;;;;;;15.80;12.73;;;-1.40;99.90;;;;;;5092350;28;20304;-41
2021/01/10 07:08:39;;;;;;;16.17;12.67;;;-1.30;99.90;;;;;;5092108;28;20317;-40
2021/01/10 07:11:34;;;;;;;16.37;13.07;;;-1.20;99.90;;;;;;5092212;28;20296;-41
2021/01/10 07:14:27;;;;;;;17.73;13.20;;;-1.00;99.90;;;;;;5092146;28;20206;-42
2021/01/10 07:17:19;;;;;;;16.37;12.60;;;-0.90;99.90;;;;;;5092068;28;20215;-40
2021/01/10 07:19:49;;;;;;;18.47;12.77;;;-0.90;99.90;;;;;;5082131;28;20657;-40
2021/01/10 07:22:31;;;;;;;20.63;14.07;;;-1.00;99.90;;;;;;5092130;28;20638;-41
2021/01/10 07:25:19;;;;;;;18.17;13.37;;;-1.10;99.90;;;;;;5092087;28;20214;-41
2021/01/10 07:27:46;;;;;;;20.53;14.03;;;-1.00;99.90;;;;;;5091991;28;20334;-40
2021/01/10 07:30:24;;;;;;;17.63;12.83;;;-1.00;99.90;;;;;;5092993;28;20293;-40
2021/01/10 07:32:52;;;;;;;19.77;14.77;;;-1.00;99.90;;;;;;5096192;28;20244;-42
2021/01/10 07:35:19;;;;;;;22.50;14.80;;;-1.00;99.90;;;;;;5096168;28;20206;-39
2021/01/10 07:37:46;;;;;;;18.42;13.60;;;-1.00;99.90;;;;;;5096086;28;20211;-39
2021/01/10 07:40:23;;;;;;;20.33;13.45;;;-1.00;99.90;;;;;;5096045;28;20645;-38
2021/01/10 07:43:01;;;;;;;20.27;12.93;;;-1.00;99.90;;;;;;5096019;28;20210;-38
2021/01/10 07:45:39;;;;;;;21.20;14.13;;;-1.00;99.90;;;;;;5095857;28;20206;-39
2021/01/10 07:48:08;;;;;;;20.43;14.10;;;-1.10;99.90;;;;;;5095832;28;20287;-38
2021/01/10 07:50:35;;;;;;;27.13;14.63;;;-1.20;99.90;;;;;;5096030;28;20203;-39
2021/01/10 07:53:03;;;;;;;22.13;13.53;;;-1.30;99.90;;;;;;5095761;28;20236;-40
2021/01/10 07:55:31;;;;;;;21.47;14.33;;;-1.30;99.90;;;;;;5095859;28;20211;-40
2021/01/10 07:58:18;;;;;;;22.07;13.93;;;-1.30;99.90;;;;;;5095630;28;20211;-39
2021/01/10 08:00:53;;;;;;;20.43;13.90;;;-1.20;99.90;;;;;;5095669;28;20690;-39
2021/01/10 08:03:25;;;;;;;26.43;14.30;;;-1.20;99.90;;;;;;5095742;28;20290;-39
2021/01/10 08:06:04;;;;;;;24.30;12.37;;;-1.00;99.90;;;;;;5095537;28;20297;-39
2021/01/10 08:08:40;;;;;;;19.30;12.57;;;-0.90;99.90;;;;;;5095499;28;20749;-38
2021/01/10 08:11:08;;;;;;;26.10;13.70;;;-0.80;99.90;;;;;;5095250;28;20265;-38
2021/01/10 08:13:36;;;;;;;22.67;13.07;;;-0.90;99.90;;;;;;5095343;28;20242;-41
2021/01/10 08:16:05;;;;;;;23.03;12.37;;;-0.90;99.90;;;;;;5095555;28;20343;-39
2021/01/10 08:18:35;;;;;;;21.27;13.67;;;-0.90;99.90;;;;;;5095262;28;20261;-39
2021/01/10 08:21:05;;;;;;;20.37;13.70;;;-0.90;99.90;;;;;;5095320;28;20211;-40
2021/01/10 08:23:32;;;;;;;24.27;14.33;;;-0.90;99.90;;;;;;5095223;28;20580;-39
2021/01/10 08:26:17;;;;;;;21.53;13.83;;;-0.90;99.90;;;;;;5095169;28;20265;-39
2021/01/10 08:28:46;;;;;;;22.03;15.43;;;-0.90;99.90;;;;;;5095227;28;20392;-40
2021/01/10 08:31:15;;;;;;;27.60;18.90;;;-0.90;99.90;;;;;;5095150;28;20243;-39
2021/01/10 08:33:43;;;;;;;26.17;17.40;;;-0.80;99.90;;;;;;5094960;28;20203;-39
2021/01/10 08:36:14;;;;;;;24.73;15.53;;;-0.60;99.90;;;;;;5094871;28;20233;-38
2021/01/10 08:38:52;;;;;;;23.47;15.57;;;-0.60;99.90;;;;;;5094972;28;20696;-39
2021/01/10 08:41:29;;;;;;;21.07;14.27;;;-0.50;99.90;;;;;;5094840;28;20245;-38
2021/01/10 08:43:57;;;;;;;21.10;13.77;;;-0.40;99.90;;;;;;5094524;28;20260;-39
2021/01/10 08:46:25;;;;;;;22.27;14.73;;;-0.40;99.90;;;;;;5094609;28;20306;-39
2021/01/10 08:48:53;;;;;;;28.67;15.27;;;-0.30;99.90;;;;;;5094808;28;20229;-39
2021/01/10 08:51:31;;;;;;;24.73;14.63;;;-0.20;99.90;;;;;;5094823;28;20241;-40
2021/01/10 08:53:58;;;;;;;21.43;13.97;;;-0.20;99.90;;;;;;5094620;28;20203;-39
2021/01/10 08:56:26;;;;;;;25.67;14.93;;;-0.10;99.90;;;;;;5094599;28;20234;-40
2021/01/10 08:58:56;;;;;;;27.07;13.97;;;-0.20;99.90;;;;;;5094463;28;20293;-41
2021/01/10 09:01:25;;;;;;;20.90;14.20;;;-0.10;99.90;;;;;;5094602;28;20213;-40
2021/01/10 09:04:05;;;;;;;24.50;15.13;;;0.00;99.90;;;;;;5094370;28;20571;-39
2021/01/10 09:06:41;;;;;;;21.30;14.30;;;0.00;99.90;;;;;;5094561;28;20293;-40
2021/01/10 09:09:19;;;;;;;22.93;15.33;;;0.10;99.90;;;;;;5094458;28;20568;-40
2021/01/10 09:11:50;;;;;;;29.10;15.40;;;0.10;99.90;;;;;;5094303;28;20242;-40
2021/01/10 09:14:20;;;;;;;25.43;14.73;;;0.20;99.90;;;;;;5094455;28;20206;-40
2021/01/10 09:16:47;;;;;;;23.88;14.43;;;0.30;99.90;;;;;;5094238;28;20661;-40
2021/01/10 09:19:16;;;;;;;25.43;15.13;;;0.30;99.90;;;;;;5094365;28;20307;-40
2021/01/10 09:21:47;;;;;;;19.48;14.02;;;0.30;99.90;;;;;;5094082;28;20242;-42
2021/01/10 09:24:15;;;;;;;28.20;14.80;;;0.30;99.90;;;;;;5093960;28;20746;-43
2021/01/10 09:26:42;;;;;;;36.50;13.97;;;0.20;99.90;;;;;;5093708;28;20275;-41
2021/01/10 09:29:18;;;;;;;21.63;15.23;;;0.10;99.90;;;;;;5093934;28;20510;-42
2021/01/10 09:31:48;;;;;;;37.40;14.93;;;0.00;99.90;;;;;;5093928;28;20246;-41
2021/01/10 09:34:23;;;;;;;24.10;15.43;;;0.00;99.90;;;;;;5093662;28;20206;-40
2021/01/10 09:36:58;;;;;;;23.63;15.97;;;0.00;99.90;;;;;;5093512;28;20210;-40
2021/01/10 09:39:37;;;;;;;33.13;17.90;;;0.00;99.90;;;;;;5093662;28;20289;-40
2021/01/10 09:42:04;;;;;;;27.20;14.10;;;0.00;99.90;;;;;;5093518;28;20267;-40
2021/01/10 09:44:32;;;;;;;20.33;14.13;;;0.00;99.90;;;;;;5093679;28;20665;-40
2021/01/10 09:46:59;;;;;;;20.33;14.33;;;0.00;99.90;;;;;;5093428;28;20234;-41
2021/01/10 09:49:30;;;;;;;21.00;16.33;;;0.00;99.90;;;;;;5093784;28;20213;-39
2021/01/10 09:51:59;;;;;;;21.88;16.33;;;0.10;99.90;;;;;;5093764;28;20626;-40
2021/01/10 09:54:28;;;;;;;22.63;14.23;;;0.10;99.90;;;;;;5092513;28;20264;-42
2021/01/10 09:56:56;;;;;;;22.60;15.38;;;0.10;99.90;;;;;;5093358;28;20695;-42
2021/01/10 09:59:38;;;;;;;23.13;17.13;;;0.20;99.90;;;;;;5093312;28;20259;-42
2021/01/10 10:02:14;;;;;;;31.40;26.67;;;0.20;99.90;;;;;;5093434;28;20253;-43
2021/01/10 10:04:44;;;;;;;29.17;23.73;;;0.30;99.90;;;;;;5093234;28;20561;-42
2021/01/10 10:07:11;;;;;;;26.57;20.30;;;0.40;99.90;;;;;;5093223;28;20629;-43
2021/01/10 10:10:00;;;;;;;22.87;20.43;;;0.40;99.90;;;;;;5093139;28;20276;-43
2021/01/10 10:12:28;;;;;;;18.40;15.13;;;0.30;99.90;;;;;;5089853;28;20325;-43
2021/01/10 10:14:57;;;;;;;18.60;13.87;;;0.30;99.90;;;;;;5093217;28;20289;-41
2021/01/10 10:17:30;;;;;;;19.63;14.37;;;0.30;99.90;;;;;;5093222;28;20210;-41
2021/01/10 10:19:58;;;;;;;24.75;17.27;;;0.30;99.90;;;;;;5093028;28;20210;-42
2021/01/10 10:22:28;;;;;;;19.17;14.73;;;0.30;99.90;;;;;;5092853;28;20724;-42
2021/01/10 10:24:56;;;;;;;19.37;15.07;;;0.30;99.90;;;;;;5092947;28;20294;-42
2021/01/10 10:27:25;;;;;;;34.33;26.00;;;0.50;99.90;;;;;;5092597;28;20254;-41
2021/01/10 10:29:53;;;;;;;24.90;19.23;;;0.60;99.90;;;;;;5092827;28;20267;-41
2021/01/10 10:32:21;;;;;;;23.13;17.23;;;0.60;99.90;;;;;;5092585;28;20229;-40
2021/01/10 10:34:48;;;;;;;25.30;18.90;;;0.50;99.90;;;;;;5092451;28;20229;-41
2021/01/10 10:37:17;;;;;;;24.80;16.87;;;0.50;99.90;;;;;;5092857;28;20580;-41
2021/01/10 10:39:44;;;;;;;22.20;16.77;;;0.50;99.90;;;;;;5093051;28;20213;-42
2021/01/10 10:42:13;;;;;;;22.17;14.93;;;0.60;99.90;;;;;;5092872;28;20661;-39
2021/01/10 10:44:41;;;;;;;22.83;17.30;;;0.70;99.90;;;;;;5092522;28;20242;-41
2021/01/10 10:47:11;;;;;;;20.38;14.02;;;0.90;99.90;;;;;;5092472;28;20297;-41
2021/01/10 10:49:39;;;;;;;18.40;14.32;;;1.10;99.90;;;;;;5092475;28;20267;-41
2021/01/10 10:52:09;;;;;;;21.43;15.47;;;1.20;99.90;;;;;;5092168;28;20297;-41
2021/01/10 10:54:38;;;;;;;21.43;14.93;;;1.20;99.90;;;;;;5092097;28;20272;-42
2021/01/10 10:57:07;;;;;;;20.57;14.70;;;0.90;99.90;;;;;;5091843;28;20293;-42
2021/01/10 10:59:34;;;;;;;21.50;15.50;;;0.90;99.90;;;;;;5091878;28;20211;-41
2021/01/10 11:02:03;;;;;;;21.75;15.57;;;0.80;99.90;;;;;;5092037;28;20297;-40
2021/01/10 11:04:30;;;;;;;22.67;16.40;;;0.70;99.90;;;;;;5091891;28;20214;-41
2021/01/10 11:06:57;;;;;;;20.58;15.43;;;0.60;99.90;;;;;;5091794;28;20242;-39
2021/01/10 11:09:24;;;;;;;21.05;16.25;;;0.60;99.90;;;;;;5091826;28;20302;-40
2021/01/10 11:11:52;;;;;;;22.45;16.45;;;0.70;99.90;;;;;;5091568;28;20704;-39
2021/01/10 11:14:19;;;;;;;24.93;17.00;;;1.00;99.90;;;;;;5091558;28;20232;-41
2021/01/10 11:16:49;;;;;;;29.67;18.23;;;1.00;99.90;;;;;;5091949;28;20301;-40
2021/01/10 11:19:16;;;;;;;25.70;16.80;;;1.00;99.90;;;;;;5092105;28;20720;-42
2021/01/10 11:21:44;;;;;;;22.40;15.97;;;1.20;99.90;;;;;;5091969;28;20217;-41
2021/01/10 11:24:12;;;;;;;28.48;18.08;;;1.30;99.90;;;;;;5091847;28;20669;-42
2021/01/10 11:26:40;;;;;;;22.27;16.47;;;1.50;99.90;;;;;;5091821;28;20346;-41
2021/01/10 11:29:08;;;;;;;26.08;17.55;;;1.60;99.90;;;;;;5092049;28;20581;-41
2021/01/10 11:31:36;;;;;;;25.38;16.13;;;1.60;99.90;;;;;;5092048;28;20272;-41
2021/01/10 11:34:05;;;;;;;25.38;17.13;;;1.80;99.90;;;;;;5091879;28;20238;-41
2021/01/10 11:36:32;;;;;;;27.87;18.17;;;2.00;99.90;;;;;;5091639;28;20207;-41
2021/01/10 11:38:59;;;;;;;25.53;17.83;;;2.10;99.90;;;;;;5091986;28;20289;-41
2021/01/10 11:41:26;;;;;;;27.20;18.00;;;2.20;99.90;;;;;;5091693;28;20211;-42
2021/01/10 11:43:54;;;;;;;26.80;17.50;;;2.30;99.90;;;;;;5091679;28;20242;-41
2021/01/10 11:46:23;;;;;;;27.60;18.15;;;2.30;99.90;;;;;;5091556;28;20740;-40
2021/01/10 11:48:50;;;;;;;22.83;16.92;;;2.30;99.90;;;;;;5091877;28;20238;-42
2021/01/10 11:51:18;;;;;;;26.23;18.17;;;2.30;99.90;;;;;;5091923;28;20298;-42
2021/01/10 11:53:46;;;;;;;24.57;16.67;;;2.20;99.90;;;;;;5092472;28;20306;-43
2021/01/10 11:56:13;;;;;;;25.43;17.93;;;2.20;99.90;;;;;;5091849;28;20282;-42
2021/01/10 11:58:41;;;;;;;28.10;19.47;;;2.20;99.90;;;;;;5091566;28;20301;-42
2021/01/10 12:01:09;;;;;;;25.97;18.17;;;2.20;99.90;;;;;;5091734;28;20206;-42
2021/01/10 12:03:38;;;;;;;23.40;17.30;;;2.20;99.90;;;;;;5091732;28;20238;-43
2021/01/10 12:06:05;;;;;;;27.10;17.77;;;2.20;99.90;;;;;;5091657;28;20289;-44
2021/01/10 12:08:32;;;;;;;24.10;17.67;;;2.30;99.90;;;;;;5091340;28;20768;-43
2021/01/10 12:10:59;;;;;;;28.60;18.20;;;2.30;99.90;;;;;;5091361;28;20334;-43
2021/01/10 12:13:26;;;;;;;26.83;18.73;;;2.40;99.90;;;;;;5091743;28;20400;-47
2021/01/10 12:15:55;;;;;;;27.23;17.00;;;2.30;99.90;;;;;;5091285;28;20233;-45
2021/01/10 12:18:23;;;;;;;23.80;16.20;;;2.30;99.90;;;;;;5094034;28;20614;-45
2021/01/10 12:20:51;;;;;;;24.60;17.48;;;2.30;99.90;;;;;;5095017;28;20222;-47
2021/01/10 12:23:18;;;;;;;26.07;18.30;;;2.30;99.90;;;;;;5094943;28;20305;-45
2021/01/10 12:25:45;;;;;;;25.90;17.63;;;2.30;99.90;;;;;;5094939;28;20210;-44
2021/01/10 12:28:12;;;;;;;24.77;17.67;;;2.20;99.90;;;;;;5094844;28;20554;-46
2021/01/10 12:30:39;;;;;;;25.87;17.80;;;2.30;99.90;;;;;;5094880;28;20230;-46
2021/01/10 12:33:06;;;;;;;26.35;17.60;;;2.40;99.90;;;;;;5094678;28;20211;-45
2021/01/10 12:35:34;;;;;;;28.90;18.93;;;2.50;99.90;;;;;;5094499;28;20320;-45
2021/01/10 12:38:01;;;;;;;26.15;18.25;;;2.50;99.90;;;;;;5095015;28;20234;-44
2021/01/10 12:40:29;;;;;;;26.13;17.15;;;2.40;99.90;;;;;;5094825;28;20297;-44
2021/01/10 12:42:56;;;;;;;27.90;19.40;;;2.40;99.90;;;;;;5094937;28;20234;-44
2021/01/10 12:45:23;;;;;;;26.70;17.57;;;2.30;99.90;;;;;;5094615;28;20294;-44